Time;durP1;ratioP1;P1;durP2;ratioP2;P2;SDS_P1;SDS_P2;PMS_P1;PMS_P2;Temp;Humidity;BMP_temperature;BMP_pressure;BME280_temperature;BME280_humidity;BME280_pressure;Samples;Min_cycle;Max_cycle;Signal;HPM_P1;HPM_P2
2023/03/29 00:04:53;;;;;;;14.3;6.9;;;;;;;-2.3;70;99370;;;;
2023/03/29 00:15:52;;;;;;;14.3;6.9;;;;;;;-2.4;70.9;99360;;;;
2023/03/29 00:25:52;;;;;;;17.3;7.3;;;;;;;-2.6;71.8;99370;;;;
2023/03/29 00:36:56;;;;;;;17.3;7.3;;;;;;;-2.7;72.3;99380;;;;
2023/03/29 00:46:52;;;;;;;17.3;7.3;;;;;;;-2.8;72.8;99380;;;;
2023/03/29 00:57:54;;;;;;;11.2;6.7;;;;;;;-2.9;73.1;99380;;;;
2023/03/29 01:07:56;;;;;;;11.2;6.7;;;;;;;-3.1;73.5;99360;;;;
2023/03/29 01:18:53;;;;;;;11.2;6.7;;;;;;;-3.4;73.9;99360;;;;
2023/03/29 01:28:53;;;;;;;13.8;7.3;;;;;;;-3.6;74.4;99350;;;;
2023/03/29 01:38:53;;;;;;;13.8;7.3;;;;;;;-3.7;75;99340;;;;
2023/03/29 01:48:53;;;;;;;13.8;7.3;;;;;;;-3.8;75.3;99340;;;;
2023/03/29 01:59:53;;;;;;;7.8;5.5;;;;;;;-4;75.6;99340;;;;
2023/03/29 02:09:53;;;;;;;7.8;5.5;;;;;;;-4.1;75.5;99340;;;;
2023/03/29 02:19:53;;;;;;;11.6;6.1;;;;;;;-4.2;75.5;99340;;;;
2023/03/29 02:30:53;;;;;;;11.6;6.1;;;;;;;-4.3;75.6;99340;;;;
2023/03/29 02:41:53;;;;;;;11.6;6.1;;;;;;;-4.5;75.5;99340;;;;
2023/03/29 02:52:53;;;;;;;6.5;3.8;;;;;;;-4.7;75.3;99350;;;;
2023/03/29 03:02:53;;;;;;;6.5;3.8;;;;;;;-4.8;75.6;99340;;;;
2023/03/29 03:13:53;;;;;;;6.5;3.8;;;;;;;-5;75.9;99340;;;;
2023/03/29 03:23:53;;;;;;;9.6;5.5;;;;;;;-5.1;76.2;99350;;;;
2023/03/29 03:34:53;;;;;;;9.6;5.5;;;;;;;-5.1;76.5;99350;;;;
2023/03/29 03:44:53;;;;;;;9.6;5.5;;;;;;;-5;76.7;99350;;;;
2023/03/29 03:55:54;;;;;;;17.1;10.4;;;;;;;-5;76.8;99360;;;;
2023/03/29 04:05:53;;;;;;;17.1;10.4;;;;;;;-5;76.8;99360;;;;
2023/03/29 04:16:53;;;;;;;17.1;10.4;;;;;;;-5.1;76.4;99360;;;;
2023/03/29 04:26:53;;;;;;;19.4;11.4;;;;;;;-5.1;76.7;99360;;;;
2023/03/29 04:37:53;;;;;;;19.4;11.4;;;;;;;-5;76.9;99350;;;;
2023/03/29 04:48:53;;;;;;;23.6;14.2;;;;;;;-4.9;77.1;99350;;;;
2023/03/29 04:58:53;;;;;;;23.6;14.2;;;;;;;-4.7;77.1;99350;;;;
2023/03/29 05:08:53;;;;;;;23.6;14.2;;;;;;;-4.6;76.7;99340;;;;
2023/03/29 05:19:53;;;;;;;8;5.3;;;;;;;-4.2;75.7;99340;;;;
2023/03/29 05:30:53;;;;;;;8;5.3;;;;;;;-3.9;74.3;99340;;;;
2023/03/29 05:41:54;;;;;;;8;5.3;;;;;;;-3.5;72.5;99350;;;;
2023/03/29 05:51:55;;;;;;;6.6;4.9;;;;;;;-3.1;71.8;99350;;;;
2023/03/29 06:01:53;;;;;;;6.6;4.9;;;;;;;-2.8;71;99350;;;;
2023/03/29 06:12:53;;;;;;;6.6;4.9;;;;;;;-2.5;69.4;99350;;;;
2023/03/29 06:22:53;;;;;;;11.2;5.1;;;;;;;-2.2;69.1;99350;;;;
2023/03/29 06:32:53;;;;;;;11.2;5.1;;;;;;;-1.8;68.1;99350;;;;
2023/03/29 06:42:56;;;;;;;11.2;5.1;;;;;;;-1.4;67.2;99370;;;;
2023/03/29 06:53:53;;;;;;;11.7;5.9;;;;;;;-1;66.6;99370;;;;
2023/03/29 07:03:53;;;;;;;11.7;5.9;;;;;;;-0.6;64.4;99370;;;;
2023/03/29 07:13:53;;;;;;;11.7;5.9;;;;;;;-0.2;63.1;99380;;;;
2023/03/29 07:24:53;;;;;;;9.8;4.8;;;;;;;0.3;62.1;99380;;;;
2023/03/29 07:34:53;;;;;;;9.8;4.8;;;;;;;0.6;60.5;99380;;;;
2023/03/29 07:45:54;;;;;;;9.8;4.8;;;;;;;1.1;58.4;99370;;;;
2023/03/29 07:55:53;;;;;;;7.2;3.8;;;;;;;1.5;58.4;99370;;;;
2023/03/29 08:06:54;;;;;;;7.2;3.8;;;;;;;1.9;55.5;99350;;;;
2023/03/29 08:16:53;;;;;;;7.2;3.8;;;;;;;2.4;54.1;99350;;;;
2023/03/29 08:26:53;;;;;;;7.6;3.8;;;;;;;2.7;48.6;99340;;;;
2023/03/29 08:37:53;;;;;;;7.6;3.8;;;;;;;3.1;47.7;99340;;;;
2023/03/29 08:48:53;;;;;;;6.7;3.5;;;;;;;3.6;47.1;99330;;;;
2023/03/29 08:59:53;;;;;;;6.7;3.5;;;;;;;3.6;46;99330;;;;
2023/03/29 09:09:53;;;;;;;6.7;3.5;;;;;;;4;45.6;99320;;;;
2023/03/29 09:19:53;;;;;;;4.4;2.3;;;;;;;4.1;45.1;99310;;;;
2023/03/29 09:30:53;;;;;;;4.4;2.3;;;;;;;4.5;46.7;99300;;;;
2023/03/29 09:41:53;;;;;;;4.4;2.3;;;;;;;4.9;46.1;99290;;;;
2023/03/29 09:51:53;;;;;;;4.1;2.2;;;;;;;5.1;49.9;99280;;;;
2023/03/29 10:02:53;;;;;;;4.1;2.2;;;;;;;5.2;44.5;99280;;;;
2023/03/29 10:12:53;;;;;;;4.1;2.2;;;;;;;5.4;44.5;99270;;;;
2023/03/29 10:23:53;;;;;;;4.6;2.5;;;;;;;5.7;42;99260;;;;
2023/03/29 10:33:53;;;;;;;4.6;2.5;;;;;;;5.9;42.5;99260;;;;
2023/03/29 10:44:53;;;;;;;4.6;2.5;;;;;;;6.3;44.2;99250;;;;
2023/03/29 10:55:53;;;;;;;4.7;2.5;;;;;;;6.5;40.7;99240;;;;
2023/03/29 11:05:53;;;;;;;4.7;2.5;;;;;;;6.7;38.1;99230;;;;
2023/03/29 11:15:53;;;;;;;4.7;2.5;;;;;;;7;40;99210;;;;
2023/03/29 11:26:53;;;;;;;5.4;2.6;;;;;;;7.1;40;99210;;;;
2023/03/29 11:36:53;;;;;;;5.4;2.6;;;;;;;7.1;35.9;99190;;;;
2023/03/29 11:47:53;;;;;;;5.4;2.5;;;;;;;7.3;34.9;99180;;;;
2023/03/29 11:58:53;;;;;;;5.4;2.5;;;;;;;7.2;33;99170;;;;
2023/03/29 12:09:53;;;;;;;5.4;2.5;;;;;;;7.6;36.5;99160;;;;
2023/03/29 12:19:53;;;;;;;6.6;3;;;;;;;7.7;37.7;99150;;;;
2023/03/29 12:30:53;;;;;;;6.6;3;;;;;;;7.7;36.9;99150;;;;
2023/03/29 12:40:53;;;;;;;6.6;3;;;;;;;7.9;37.7;99130;;;;
2023/03/29 12:51:53;;;;;;;6.8;3;;;;;;;8;39.4;99120;;;;
2023/03/29 13:01:53;;;;;;;6.8;3;;;;;;;8.1;36.4;99110;;;;
2023/03/29 13:12:53;;;;;;;6.8;3;;;;;;;8.5;39.1;99100;;;;
2023/03/29 13:23:53;;;;;;;6.8;3.2;;;;;;;8.7;38;99090;;;;
2023/03/29 13:33:53;;;;;;;6.8;3.2;;;;;;;8.8;37.7;99080;;;;
2023/03/29 13:44:53;;;;;;;6.8;3.2;;;;;;;9.1;38.5;99070;;;;
2023/03/29 13:54:53;;;;;;;5.5;3;;;;;;;9.2;38.3;99050;;;;
2023/03/29 14:05:53;;;;;;;5.5;3;;;;;;;9.5;38;99050;;;;
2023/03/29 14:15:53;;;;;;;5.5;3;;;;;;;9.9;38.4;99030;;;;
2023/03/29 14:25:53;;;;;;;6.2;3.4;;;;;;;10.3;37.7;99030;;;;
2023/03/29 14:35:53;;;;;;;6.2;3.4;;;;;;;10.7;37.9;99030;;;;
2023/03/29 14:45:53;;;;;;;6.2;3.4;;;;;;;9.8;38.3;99030;;;;
2023/03/29 14:56:53;;;;;;;7.5;4.3;;;;;;;9.5;39.7;99030;;;;
2023/03/29 15:06:53;;;;;;;7.5;4.3;;;;;;;9.7;41.1;99020;;;;
2023/03/29 15:16:53;;;;;;;7.5;4.3;;;;;;;9.7;40.1;99010;;;;
2023/03/29 15:27:53;;;;;;;6.3;3.2;;;;;;;9.8;40.3;99010;;;;
2023/03/29 15:38:53;;;;;;;6.3;3.2;;;;;;;9.9;40.2;99000;;;;
2023/03/29 15:48:53;;;;;;;5.5;3.7;;;;;;;9.6;41.1;98990;;;;
2023/03/29 15:59:53;;;;;;;5.5;3.7;;;;;;;9.9;41.2;98980;;;;
2023/03/29 16:10:53;;;;;;;5.5;3.7;;;;;;;12.7;36.3;98970;;;;
2023/03/29 16:20:53;;;;;;;5.9;3.4;;;;;;;14.1;34.6;98960;;;;
2023/03/29 16:30:53;;;;;;;5.9;3.4;;;;;;;12.5;35.2;98960;;;;
2023/03/29 16:41:53;;;;;;;5.9;3.4;;;;;;;10.5;38.7;98960;;;;
2023/03/29 16:51:53;;;;;;;9.2;5.1;;;;;;;9.1;41.8;98960;;;;
2023/03/29 17:01:53;;;;;;;9.2;5.1;;;;;;;7.9;45.4;98950;;;;
2023/03/29 17:12:53;;;;;;;9.2;5.1;;;;;;;6.9;47.1;98960;;;;
2023/03/29 17:23:53;;;;;;;21.1;13.2;;;;;;;5.9;49.3;98950;;;;
2023/03/29 17:33:53;;;;;;;21.1;13.2;;;;;;;5.2;50.7;98970;;;;
2023/03/29 17:44:53;;;;;;;21.1;13.2;;;;;;;4.4;52.8;98980;;;;
2023/03/29 17:55:53;;;;;;;20;10.6;;;;;;;3.7;55.1;98970;;;;
2023/03/29 18:05:53;;;;;;;20;10.6;;;;;;;3.4;57.5;98980;;;;
2023/03/29 18:16:53;;;;;;;20;10.6;;;;;;;3.2;59.2;98990;;;;
2023/03/29 18:27:53;;;;;;;27.9;16.5;;;;;;;3;61.3;98990;;;;
2023/03/29 18:38:54;;;;;;;27.9;16.5;;;;;;;3;62.8;98990;;;;
2023/03/29 18:49:53;;;;;;;18.3;8.1;;;;;;;2.9;63.7;99000;;;;
2023/03/29 18:59:53;;;;;;;18.3;8.1;;;;;;;2.8;63.6;98990;;;;
2023/03/29 19:09:53;;;;;;;18.3;8.1;;;;;;;2.5;64.3;98990;;;;
2023/03/29 19:19:55;;;;;;;15.2;9.1;;;;;;;2.7;65.1;98980;;;;
2023/03/29 19:30:53;;;;;;;15.2;9.1;;;;;;;2.9;64.3;98980;;;;
2023/03/29 19:40:53;;;;;;;15.2;9.1;;;;;;;2.8;63.6;98980;;;;
2023/03/29 19:50:53;;;;;;;11.4;5.8;;;;;;;2.9;63;98980;;;;
2023/03/29 20:00:56;;;;;;;11.4;5.8;;;;;;;2.9;62.9;98990;;;;
2023/03/29 20:11:53;;;;;;;11.4;5.8;;;;;;;2.9;62.7;98990;;;;
2023/03/29 20:21:56;;;;;;;11.1;4.9;;;;;;;2.8;63.1;98990;;;;
2023/03/29 20:32:53;;;;;;;11.1;4.9;;;;;;;2.7;63.4;99000;;;;
2023/03/29 20:42:53;;;;;;;11.1;4.9;;;;;;;2.6;64.8;98980;;;;
2023/03/29 20:52:53;;;;;;;12.9;6.5;;;;;;;2.6;64.2;98960;;;;
2023/03/29 21:03:53;;;;;;;12.9;6.5;;;;;;;2.7;63.9;98960;;;;
2023/03/29 21:13:53;;;;;;;12.9;6.5;;;;;;;2.7;63.6;98950;;;;
2023/03/29 21:23:53;;;;;;;12;5.3;;;;;;;2.6;63.9;98940;;;;
2023/03/29 21:34:53;;;;;;;12;5.3;;;;;;;2.5;63.9;98930;;;;
2023/03/29 21:45:53;;;;;;;12;5.3;;;;;;;2.3;64.4;98930;;;;
2023/03/29 21:55:53;;;;;;;10.1;4.2;;;;;;;2.2;65.1;98930;;;;
2023/03/29 22:06:54;;;;;;;10.1;4.2;;;;;;;2.2;64.9;98930;;;;
2023/03/29 22:16:53;;;;;;;7.8;4.6;;;;;;;1.9;64.7;98920;;;;
2023/03/29 22:27:53;;;;;;;7.8;4.6;;;;;;;1.6;65.2;98920;;;;
2023/03/29 22:37:53;;;;;;;7.8;4.6;;;;;;;1.5;65.9;98910;;;;
2023/03/29 22:47:53;;;;;;;10.6;5.5;;;;;;;1.3;66.7;98910;;;;
2023/03/29 22:57:53;;;;;;;10.6;5.5;;;;;;;1.1;67;98900;;;;
2023/03/29 23:07:54;;;;;;;10.6;5.5;;;;;;;1.1;67.9;98900;;;;
2023/03/29 23:18:53;;;;;;;13.6;6.5;;;;;;;1.2;68.6;98890;;;;
2023/03/29 23:29:55;;;;;;;13.6;6.5;;;;;;;1.5;69.3;98890;;;;
2023/03/29 23:40:54;;;;;;;13.6;6.5;;;;;;;1.8;69.7;98880;;;;
2023/03/29 23:50:56;;;;;;;10.8;6.7;;;;;;;2.5;69;98870;;;;
